Fairview Valley, Nevada Weather observations

Data are for observation ending at time listed.
 Day   Time    Ave.   Ave.  Ave.  Vector   Max.   Stn.    Total    Solar   Ave.   Ave.    #1       #2
  of    of     Air    Rel.  Wind   Wind    Wind   Baro.  Precip.   Rad.    Soil   Vis.   Cloud   Cloud
Year   Day     Temp.  Hum.  Speed  Dir.    Gust   Pres.                    Temp.          Ceil    Ceil
2015   (PST)    F      %     mph   deg.    mph     mb.     in.     W/m2     F     (km)   k ft.   k ft.
------------------------------------------------------------------------------------------------------
 239   12:50   90.6    12    3.7   313     11.5    875     0.00     931    79.6   999.0    0.0  999.0
 239   13:00   91.5    12    5.0   205     11.3    875     0.00     908    79.8   999.0    0.0  999.0
 239   13:10   91.8    12    5.7   242     12.3    875     0.00     905    80.0   999.0    0.0  999.0
 239   13:20   92.0    12    6.6   219     12.4    875     0.00     896    80.3   999.0    0.0  999.0
 239   13:30   91.7    12    4.3   211      9.8    875     0.00     898    80.5   999.0    0.0  999.0
 239   13:40   91.8    12    3.6   219      9.8    875     0.00     880    80.8   999.0    0.0  999.0
 239   13:50   92.0    12    4.8   229     13.1    874     0.00     859    81.1   999.0    0.0  999.0
 239   14:00   92.6    12    7.7   237     14.3    874     0.00     838    81.3   999.0    0.0  999.0
 239   14:10   92.6    12    5.8   172     11.7    874     0.00     820    81.7   999.0    0.0  999.0
 239   14:20   92.5    12    6.9   252     12.0    874     0.00     796    81.9   999.0    0.0  999.0
 239   14:30   92.3    11    8.2   274     14.6    874     0.00     771    82.2   999.0    0.0  999.0
 239   14:40   92.1    12    6.3   248     11.8    874     0.00     737    82.5   999.0    0.0  999.0
 239   14:50   92.4    11    5.0   196      9.3    874     0.00     713    82.8   999.0    0.0  999.0
 239   15:00   93.0    11    8.6   302     15.7    874     0.00     685    83.0   999.0    0.0  999.0
 239   15:10   92.7    12   12.6   277     21.0    873     0.00     659    83.3   999.0    0.0  999.0
 239   15:20   92.4    12    8.3   259     16.7    873     0.00     631    83.6   999.0    0.0  999.0
 239   15:30   92.8    11    7.2   297     15.3    873     0.00     595    83.9   999.0    0.0  999.0
 239   15:40   92.6    11    7.2   292     12.0    873     0.00     564    84.2   999.0    0.0  999.0
 239   15:50   92.7    11    8.0   312     11.2    873     0.00     532    84.5   999.0    0.0  999.0
 239   16:00   92.3    11    4.8   277      9.3    873     0.00     498    84.7   999.0    0.0  999.0
 239   16:10   92.4    11    6.6   240     14.5    873     0.00     464    85.0   999.0    0.0  999.0
 239   16:20   92.2    11    5.3   294      9.8    873     0.00     430    85.3   999.0    0.0  999.0
 239   16:30   92.8    11    3.5    39     10.4    873     0.00     397    85.6   999.0    0.0  999.0
 239   16:40   92.7    11    5.2   244     11.0    873     0.00     358    85.8   999.0    0.0  999.0
 239   16:50   92.9    11    5.6   270      9.3    873     0.00     318    86.0   999.0    0.0  999.0
 239   17:00   91.9    11    7.1   288     13.0    873     0.00     214    86.3   999.0    0.0  999.0
 239   17:10   91.3    12    6.6   252     12.4    873     0.00     192    86.5   999.0    0.0  999.0
 239   17:20   91.7    11    2.7   249      5.8    873     0.00     198    86.7   999.0    0.0  999.0
 239   17:30   91.4    12    4.5   257      7.4    873     0.00     169    86.9   999.0    0.0  999.0
 239   17:40   91.1    12    7.5   288     12.3    873     0.00     157    87.1   999.0    0.0  999.0
 239   17:50   90.4    12    8.3   295     12.0    872     0.00     103    87.3   999.0    0.0  999.0
 239   18:00   89.4    12    8.7   298     12.1    872     0.00      59    87.4   999.0    0.0  999.0
 239   18:10   88.5    13    9.5   300     12.9    872     0.00      28    87.6   999.0    7.2  999.0
 239   18:20   87.6    13    9.3   311     11.7    872     0.00      14    87.7   999.0   11.6  999.0
 239   18:30   86.7    13    8.7   308     10.7    872     0.00       6    87.9   999.0   16.6  999.0
 239   18:40   85.9    14    9.6   312     12.1    872     0.00       2    88.0   999.0   12.5  999.0
 239   18:50   85.3    14    8.7   315     11.6    872     0.00       0    87.9   999.0   17.1  999.0
 239   19:00   85.0    14    9.5   314     12.1    873     0.00       0    88.0   999.0   17.8  999.0
 239   19:10   84.7    14    9.9   316     12.3    873     0.00       0    88.1   999.0   18.0  999.0
 239   19:20   84.4    15    9.8   318     12.1    873     0.00       0    88.1   999.0   10.0  999.0
 239   19:30   83.8    15    9.6   317     11.4    873     0.00       0    88.1   999.0    1.0  999.0
 239   19:40   82.4    16    9.1   319     10.4    873     0.00       0    88.1   999.0    0.0  999.0
 239   19:50   81.1    16    6.9   340      9.3    873     0.00       0    88.1   999.0    0.0  999.0
 239   20:00   79.5    17    6.3    41      9.3    873     0.00       0    88.0   999.0    0.0  999.0
 239   20:10   80.3    17    7.4    15     11.2    873     0.00       0    88.0   999.0    0.0  999.0
 239   20:20   79.8    17    5.2     8      6.6    873     0.00       0    87.9   999.0    0.0  999.0
 239   20:30   79.2    17    5.1    10      7.0    874     0.00       0    87.8   999.0    0.0  999.0
 239   20:40   78.6    18    3.1    35      5.6    874     0.00       0    87.8   999.0    0.0  999.0
 239   20:50   76.7    18    3.3    91      5.4    874     0.00       0    87.7   999.0    0.0  999.0
 239   21:00   76.3    19    1.7   110      4.1    874     0.00       0    87.6   999.0    0.0  999.0
 239   21:10   78.0    18    0.0   114      0.4    874     0.00       0    87.5   999.0    0.0  999.0
 239   21:20   78.1    18    5.7   226     11.5    874     0.00       0    87.4   999.0    0.0  999.0
 239   21:30   75.6    20    9.9   264     11.8    874     0.00       0    87.3   999.0    0.0  999.0
 239   21:40   76.0    20    6.6   270     11.0    874     0.00       0    87.2   999.0    0.0  999.0
 239   21:50   77.2    19    5.5   289     12.1    874     0.00       0    87.1   999.0    0.0  999.0
 239   22:00   77.8    20   10.3   306     17.2    874     0.00       0    87.0   999.0    0.0  999.0
 239   22:10   79.1    20   11.6   307     16.0    874     0.00       0    86.8   999.0    0.0  999.0
 239   22:20   78.5    21   12.0   305     14.7    874     0.00       0    86.7   999.0    0.0  999.0
 239   22:30   78.2    21   11.4   306     14.3    874     0.00       0    86.6   999.0    0.0  999.0
 239   22:40   78.4    21   11.2   302     15.7    874     0.00       0    86.5   999.0    0.0  999.0
 239   22:50   78.3    21    7.9   343     15.4    874     0.00       0    86.3   999.0    0.0  999.0
 239   23:00   75.9    22    7.7   154     11.1    874     0.00       0    86.2   999.0    0.0  999.0
 239   23:10   75.7    23    8.4   178     17.0    874     0.00       0    86.1   999.0    0.0  999.0
 239   23:20   76.0    23    6.5   189     12.6    874     0.00       0    85.9   999.0    0.0  999.0
 239   23:30   76.0    23    5.6   203     10.1    874     0.00       0    85.8   999.0    6.7  999.0
 239   23:40   76.6    22    7.0   243     10.7    874     0.00       0    85.7   999.0    0.0  999.0
 239   23:50   76.7    22    8.5   232     11.0    874     0.00       0    85.5   999.0    7.0  999.0
 240    0:00   75.4    23    8.2   241     11.3    874     0.00       0    85.4   999.0   13.2  999.0
 240    0:10   75.6    22    8.5   238     11.9    874     0.00       0    85.2   999.0   12.7  999.0
 240    0:20   76.4    22    8.8   244     11.0    874     0.00       0    85.1   999.0    7.9  999.0
 240    0:30   75.8    22    7.6   254     10.5    874     0.00       0    85.0   999.0    0.0  999.0
 240    0:40   75.7    22    7.8   243     11.7    874     0.00       0    84.8   999.0    0.0  999.0
 240    0:50  999.0   999  999.0   999    999.0    999    999.00     999   999.0   999.0  999.0  999.0
 240    1:00  999.0   999  999.0   999    999.0    999    999.00     999   999.0   999.0  999.0  999.0
 240    1:10  999.0   999  999.0   999    999.0    999    999.00     999   999.0   999.0  999.0  999.0
 240    1:20  999.0   999  999.0   999    999.0    999    999.00     999   999.0   999.0  999.0  999.0
 240    1:30  999.0   999  999.0   999    999.0    999    999.00     999   999.0   999.0  999.0  999.0
 240    1:40  999.0   999  999.0   999    999.0    999    999.00     999   999.0   999.0  999.0  999.0
 240    1:50  999.0   999  999.0   999    999.0    999    999.00     999   999.0   999.0  999.0  999.0
 240    2:00  999.0   999  999.0   999    999.0    999    999.00     999   999.0   999.0  999.0  999.0
 240    2:10  999.0   999  999.0   999    999.0    999    999.00     999   999.0   999.0  999.0  999.0
 240    2:20  999.0   999  999.0   999    999.0    999    999.00     999   999.0   999.0  999.0  999.0
 240    2:30  999.0   999  999.0   999    999.0    999    999.00     999   999.0   999.0  999.0  999.0
 240    2:40  999.0   999  999.0   999    999.0    999    999.00     999   999.0   999.0  999.0  999.0
 240    2:50   68.9    28    9.1   196     10.6    874     0.00       0    83.3   999.0    0.0  999.0
 240    3:00   68.4    28    8.7   214     10.9    874     0.00       0    83.2   999.0  240.0  999.0
 240    3:10  999.0   999  999.0   999    999.0    999    999.00     999   999.0   999.0  999.0  999.0
 240    3:20  999.0   999  999.0   999    999.0    999    999.00     999   999.0   999.0  999.0  999.0
 240    3:30  999.0   999  999.0   999    999.0    999    999.00     999   999.0   999.0  999.0  999.0
 240    3:40  999.0   999  999.0   999    999.0    999    999.00     999   999.0   999.0  999.0  999.0
 240    3:50  999.0   999  999.0   999    999.0    999    999.00     999   999.0   999.0  999.0  999.0
 240    4:00  999.0   999  999.0   999    999.0    999    999.00     999   999.0   999.0  999.0  999.0
 240    4:10  999.0   999  999.0   999    999.0    999    999.00     999   999.0   999.0  999.0  999.0
 240    4:20  999.0   999  999.0   999    999.0    999    999.00     999   999.0   999.0  999.0  999.0
 240    4:30  999.0   999  999.0   999    999.0    999    999.00     999   999.0   999.0  999.0  999.0
 240    4:40  999.0   999  999.0   999    999.0    999    999.00     999   999.0   999.0  999.0  999.0
 240    4:50   61.6    34    1.0   183      2.3    895    240.00       0   662.0     2.5  205.8  999.0
 240    5:00  999.0   999  999.0   999    999.0    999    999.00     999   999.0   999.0  999.0  999.0
 240    5:10  999.0   999  999.0   999    999.0    999    999.00     999   999.0   999.0  999.0  999.0
 240    5:20  999.0   999  999.0   999    999.0    999    999.00     999   999.0   999.0  999.0  999.0
 240    5:30  999.0   999  999.0   999    999.0    999    999.00     999   999.0   999.0  999.0  999.0
 240    5:40  999.0   999  999.0   999    999.0    999    999.00     999   999.0   999.0  999.0  999.0
 240    5:50   60.5    35    2.0   137      4.8    874     0.00      42    81.1   999.0    0.0  999.0
 240    6:00   61.3    34    1.8   116      4.0    874     0.00      68    81.0   999.0    0.0  999.0
 240    6:10   62.5    33    1.3   115      3.2    874     0.00      98    80.8   999.0    0.0  999.0
 240    6:20   63.8    31    0.8   176      3.4    874     0.00     126    80.6   999.0    0.0  999.0
 240    6:30   64.9    31    2.0   181      5.6    874     0.00     153    80.5   999.0    0.0  999.0
 240    6:40   66.9    29    0.4   185      1.4    874     0.00     196    80.4   999.0    0.0  999.0
 240    6:50   69.7    27    0.7   192      2.7    874     0.00     237    80.2   999.0    0.0  999.0
 240    7:00   70.6    26    0.0   280      0.7    874     0.00     277    80.1   999.0    0.0  999.0
 240    7:10   73.8    24    0.1   263      0.9    874     0.00     311    80.0   999.0    0.0  999.0
 240    7:20   76.3    22    1.0   145      3.6    874     0.00     356    79.8   999.0    0.0  999.0
 240    7:30   77.2    21    1.3   242      4.1    874     0.00     384    79.7   999.0    0.0  999.0
 240    7:40   77.9    22    2.7   177      4.8    874     0.00     411    79.6   999.0    0.0  999.0
 240    7:50   78.2    21    1.6   212      4.1    874     0.00     465    79.5   999.0    0.0  999.0
 240    8:00   78.9    21    1.5   205      4.6    874     0.00     473    79.4   999.0    0.0  999.0
 240    8:10   79.4    21    1.7   240      4.5    874     0.00     493    79.3   999.0    0.0  999.0
 240    8:20   79.3    21    3.3   232      6.5    874     0.00     548    79.2   999.0    0.0  999.0
 240    8:30   79.6    21    3.3   234      6.4    874     0.00     578    79.2   999.0    0.0  999.0
 240    8:40   80.8    20    3.5   214      5.8    874     0.00     590    79.2   999.0    0.0  999.0
 240    8:50   81.8    19    2.8   201      5.9    874     0.00     659    79.1   999.0    0.0  999.0
 240    9:00   82.7    18    3.3   199      6.2    874     0.00     669    79.0   999.0    0.0  999.0
 240    9:10   83.1    18    4.2   218      8.6    874     0.00     682    79.0   999.0    0.0  999.0
 240    9:20   83.5    18    3.0   225      8.6    874     0.00     724    79.0   999.0    0.0  999.0
 240    9:30   84.5    18    2.9   232      9.1    874     0.00     758    78.9   999.0    0.0  999.0
 240    9:40   84.6    17    3.8   217      8.5    874     0.00     774    78.9   999.0    0.0  999.0
 240    9:50   85.4    17    2.7   230     10.0    874     0.00     787    78.9   999.0    0.0  999.0
 240   10:00   86.6    16    4.8   222      8.8    874     0.00     808    78.9   999.0    0.0  999.0
 240   10:10   86.2    15    4.7   281      8.1    874     0.00     820    78.8   999.0    0.0  999.0
 240   10:20   86.9    15    4.6   257      8.6    874     0.00     862    78.8   999.0    0.0  999.0
 240   10:30   87.8    14    4.0   234      8.6    874     0.00     861    78.8   999.0    0.0  999.0
 240   10:40   88.7    14    4.0   194     10.8    874     0.00     843    78.9   999.0    0.0  999.0
 240   10:50   88.9    14    6.1   216     11.5    873     0.00     841    78.9   999.0    0.0  999.0
 240   11:00   88.6    14    3.5   182      8.6    873     0.00     820    79.0   999.0    0.0  999.0
 240   11:10   89.3    14    4.7   231      9.9    873     0.00     775    79.0   999.0    0.0  999.0
 240   11:20   89.2    14    4.6   248     11.8    873     0.00     842    79.0   999.0    0.0  999.0
 240   11:30   89.0    14    6.5   273     17.0    873     0.00     892    79.1   999.0    0.0  999.0
 240   11:40   89.8    13   10.1   235     18.0    872     0.00     959    79.1   999.0    0.0  999.0
 240   11:50   90.1    13    8.8   246     15.6    872     0.00     962    79.2   999.0    0.0  999.0
 240   12:00   91.1    13    6.8   236     13.2    872     0.00     947    79.3   999.0    0.0  999.0
 240   12:10   91.0    13    6.5   262     15.3    872     0.00     954    79.4   999.0    0.0  999.0
 240   12:20   91.0    13   11.1   297     18.8    872     0.00     917    79.6   999.0    0.0  999.0
 240   12:30   91.4    13    8.4   276     20.6    872     0.00     925    79.7   999.0    0.0  999.0
 240   12:40   91.9    13    5.3   283     13.3    872     0.00     930    79.8   999.0    0.0  999.0

Return to Fairview Valley graphs page.


Western Regional Climate Center,wrcc@dri.edu